Murwillumbah, New South Wales

1:34 AM AEST on September 02, 2015 (GMT +1000)
Byrrill Creek | | Change Station
CLOSE
Current Station
Personal Weather Station
Location: Byrrill Creek, NEW SOUTH WALES
Elevation: 351 ft
Nearby Weather Stations

Elev 351 ft 28.44 °S, 153.27 °E | Updated 14 minutes ago

Clear
Clear
44.0 °F
Feels Like 44 °F
N
1.0
Wind Variable Wind from SE
Gusts 2.0 mph

Today
High -- | Low -- °F
--% Chance of Precip.
Yesterday
High -- | Low -- °F
Precip. -- in
6:00 AM 5:32 PM
Waning Gibbous, 88% visible
Pressure 30.01 in
Visibility 6.2 miles
Clouds
Windchill 44 °F
Dew Point 42 °F
Humidity 93%
Rainfall 0.00 in
Snow Depth Not available.
UV Not available.
Pollen Not available.
Air Quality Not available.
Flu Activity Not available.
METAR YBCG 011500Z AUTO 21001KT 9999 // NCD 09/08 Q1016
Pressure 30.01 in
Visibility 6.2 miles
Clouds
Windchill 44 °F
Dew Point 42 °F
Humidity 93%
Rainfall 0.00 in
Snow Depth Not available.
UV Not available.
Pollen Not available.
Air Quality Not available.
Flu Activity Not available.
METAR YBCG 011500Z AUTO 21001KT 9999 // NCD 09/08 Q1016

10-Day Weather Forecast

×

Almanac

Astronomy

Sep. 02, 2015 Rise Set
Actual Time
Civil Twilight
Nautical Twilight
Astronomical Twilight
Moon
Length of Visible Light
Length of Day
Tomorrow will be .
, % of the Moon is Illuminated

Today's Extremes

Country Highs Country Lows

Community

WunderPhotos

Upload Photos

1,851,523 photos uploaded!

WunderBlogs® & News

Nearby

Air Quality

  Air Quality AQ Index Pollutant
Not available.

Snow Depth

Station Depth Elevation

Earthquake Activity

City Distance Mag. Time & Date
Minimum magnitude displayed is 2.5.

Coastal Water Temperatures

Place Temperature

Stations

Nearby Weather Stations

Station Location Temp. Windchill Dew Point Humidity Wind Precip. Elev Updated Type